Flight Track Log - Related Links

Times and Time Zones

All times are in EDT time to prevent confusion due to time zone crossing. See the N97826 flight status page for this flight to view local times or setup timezone preferences in your user account.

Time Position Orientation Groundspeed Altitude Reporting Facility
EDT Latitude Longitude Course Direction KTS MPH feet Rate Location/Type
Mon 02:13:37 PM 40.4667 -105.0167 336° Northwest 94 108 5,600  Level Denver TRACON
Mon 02:15:13 PM 40.5139 -105.0447 336° Northwest 98 113 6,500 532 Climbing Denver Center
Mon 02:16:15 PM 40.5375 -105.0553 341° North 93 107 7,000 532 Climbing Denver Center
Mon 02:17:17 PM 40.5664 -105.0494 North 96 110 7,600 484 Climbing Denver Center
Mon 02:18:19 PM 40.5919 -105.0322 27° Northeast 101 116 8,000 441 Climbing Denver Center
Mon 02:19:33 PM 40.6211 -105.0197 18° North 102 117 8,600 486 Climbing Denver Center
Mon 02:21:00 PM 40.6746 -105.0104 North  Level Estimated
Mon 02:28:00 PM 40.9664 -104.9595 North  Level Estimated
Mon 02:29:00 PM 41.0081 -104.9522 North  Level Estimated
Mon 02:30:00 PM 41.0498 -104.9449 North  Level Estimated
Mon 02:31:00 PM 41.0915 -104.9376 North  Level Estimated
Mon 02:32:00 PM 41.1331 -104.9302 North  Level Estimated
Mon 02:33:00 PM 41.1748 -104.9229 North  Level Estimated
Mon 02:34:00 PM 41.2165 -104.9155 North  Level Estimated
Mon 02:35:00 PM 41.2582 -104.9082 North  Level Estimated
Mon 02:36:00 PM 41.2999 -104.9008 North  Level Estimated
Mon 02:37:00 PM 41.3415 -104.8934 North  Level Estimated
Mon 02:38:00 PM 41.3832 -104.8860 North  Level Estimated
Mon 02:39:00 PM 41.4249 -104.8786 North  Level Estimated
Mon 02:40:00 PM 41.4666 -104.8712 North  Level Estimated
Mon 02:41:00 PM 41.5083 -104.8638 North  Level Estimated
Mon 02:42:00 PM 41.5499 -104.8564 North  Level Estimated
Mon 02:43:00 PM 41.5916 -104.8489 North  Level Estimated
Mon 02:44:00 PM 41.6333 -104.8415 North  Level Estimated
Mon 02:45:00 PM 41.6750 -104.8340 North  Level Estimated
Mon 02:46:00 PM 41.7167 -104.8266 North  Level Estimated
Mon 02:47:00 PM 41.7583 -104.8191 North  Level Estimated
Mon 02:48:00 PM 41.8000 -104.8116 North  Level Estimated
Mon 02:49:00 PM 41.8417 -104.8041 North  Level Estimated
Mon 02:50:00 PM 41.8834 -104.7966 North  Level Estimated
Mon 02:51:00 PM 41.9250 -104.7891 North  Level Estimated
Mon 02:52:00 PM 41.9667 -104.7815 North  Level Estimated
Mon 02:53:00 PM 42.0084 -104.7740 North  Level Estimated
Mon 02:54:00 PM 42.0500 -104.7664 North  Level Estimated
Mon 02:55:00 PM 42.0917 -104.7589 North  Level Estimated
Mon 02:56:00 PM 42.1334 -104.7513 North  Level Estimated
Mon 02:57:00 PM 42.1751 -104.7437 North  Level Estimated
Mon 02:58:00 PM 42.2167 -104.7362 North  Level Estimated
Mon 02:59:00 PM 42.2584 -104.7286 North  Level Estimated
Mon 03:00:00 PM 42.2598 -104.7283 North  Level Estimated
Mon 03:01:00 PM 42.2598 -104.7283 90° East  Level Estimated
Mon 03:02:00 PM 42.2598 -104.7283 90° East  Level Estimated
Mon 03:03:00 PM 42.2598 -104.7283 90° East  Level Estimated
Mon 03:04:00 PM 42.2598 -104.7283 90° East  Level Estimated
Mon 03:05:00 PM 42.2598 -104.7283 90° East  Level Estimated
Mon 03:06:00 PM 42.2598 -104.7283 90° East  Level Estimated
Mon 03:07:00 PM 42.2598 -104.7283 90° East  Level Estimated
Mon 03:08:00 PM 42.2598 -104.7283 90° East  Level Estimated
Mon 03:09:00 PM 42.2598 -104.7283 90° East  Level Estimated
Mon 03:10:00 PM 42.2598 -104.7283 90° East  Level Estimated
Mon 03:11:00 PM 42.2598 -104.7283 90° East  Level Estimated
Mon 03:12:00 PM 42.2598 -104.7283 90° East  Level Estimated
Mon 03:13:00 PM 42.2598 -104.7283 90° East  Level Estimated

Login

Don't have an account? Register now (free) for customized features, flight alerts, and more!